sensor_id;sensor_type;location;lat;lon;timestamp;P1;durP1;ratioP1;P2;durP2;ratioP2
14872;SDS011;7528;48.576;19.122;2023-07-28T00:04:53;4.35;;;3.20;;
14872;SDS011;7528;48.576;19.122;2023-07-28T00:09:55;3.35;;;2.83;;
14872;SDS011;7528;48.576;19.122;2023-07-28T00:14:59;3.30;;;3.00;;
14872;SDS011;7528;48.576;19.122;2023-07-28T00:20:02;4.32;;;3.20;;
14872;SDS011;7528;48.576;19.122;2023-07-28T00:25:05;3.38;;;3.08;;
14872;SDS011;7528;48.576;19.122;2023-07-28T00:30:09;3.58;;;3.28;;
14872;SDS011;7528;48.576;19.122;2023-07-28T00:35:12;4.50;;;3.13;;
14872;SDS011;7528;48.576;19.122;2023-07-28T00:40:15;2.92;;;2.70;;
14872;SDS011;7528;48.576;19.122;2023-07-28T00:45:19;3.33;;;2.78;;
14872;SDS011;7528;48.576;19.122;2023-07-28T00:50:22;3.78;;;3.00;;
14872;SDS011;7528;48.576;19.122;2023-07-28T00:55:25;3.17;;;2.88;;
14872;SDS011;7528;48.576;19.122;2023-07-28T01:00:29;3.95;;;3.05;;
14872;SDS011;7528;48.576;19.122;2023-07-28T01:05:32;4.20;;;3.30;;
14872;SDS011;7528;48.576;19.122;2023-07-28T01:10:41;4.05;;;2.88;;
14872;SDS011;7528;48.576;19.122;2023-07-28T01:15:45;5.70;;;3.10;;
14872;SDS011;7528;48.576;19.122;2023-07-28T01:20:51;4.68;;;3.03;;
14872;SDS011;7528;48.576;19.122;2023-07-28T01:25:58;3.33;;;2.60;;
14872;SDS011;7528;48.576;19.122;2023-07-28T01:31:08;3.35;;;2.72;;
14872;SDS011;7528;48.576;19.122;2023-07-28T01:36:10;3.58;;;2.95;;
14872;SDS011;7528;48.576;19.122;2023-07-28T01:41:13;3.42;;;3.03;;
14872;SDS011;7528;48.576;19.122;2023-07-28T01:46:16;4.03;;;2.90;;
14872;SDS011;7528;48.576;19.122;2023-07-28T01:51:19;4.57;;;3.70;;
14872;SDS011;7528;48.576;19.122;2023-07-28T01:56:21;3.40;;;3.10;;
14872;SDS011;7528;48.576;19.122;2023-07-28T02:01:25;4.18;;;3.33;;
14872;SDS011;7528;48.576;19.122;2023-07-28T02:06:28;3.38;;;3.08;;
14872;SDS011;7528;48.576;19.122;2023-07-28T02:11:31;3.58;;;3.28;;
14872;SDS011;7528;48.576;19.122;2023-07-28T02:16:35;4.03;;;3.15;;
14872;SDS011;7528;48.576;19.122;2023-07-28T02:21:38;3.50;;;3.20;;
14872;SDS011;7528;48.576;19.122;2023-07-28T02:26:40;4.50;;;3.60;;
14872;SDS011;7528;48.576;19.122;2023-07-28T02:31:44;3.30;;;3.00;;
14872;SDS011;7528;48.576;19.122;2023-07-28T02:36:46;4.15;;;3.40;;
14872;SDS011;7528;48.576;19.122;2023-07-28T02:41:49;6.20;;;3.67;;
14872;SDS011;7528;48.576;19.122;2023-07-28T02:46:52;3.83;;;3.15;;
14872;SDS011;7528;48.576;19.122;2023-07-28T02:51:55;3.60;;;3.30;;
14872;SDS011;7528;48.576;19.122;2023-07-28T02:56:57;3.75;;;3.20;;
14872;SDS011;7528;48.576;19.122;2023-07-28T03:02:01;3.63;;;3.33;;
14872;SDS011;7528;48.576;19.122;2023-07-28T03:07:05;4.70;;;3.22;;
14872;SDS011;7528;48.576;19.122;2023-07-28T03:12:09;3.80;;;3.00;;
14872;SDS011;7528;48.576;19.122;2023-07-28T03:17:14;4.63;;;3.03;;
14872;SDS011;7528;48.576;19.122;2023-07-28T03:22:16;3.88;;;3.17;;
14872;SDS011;7528;48.576;19.122;2023-07-28T03:27:18;5.22;;;3.05;;
14872;SDS011;7528;48.576;19.122;2023-07-28T03:32:22;4.78;;;3.70;;
14872;SDS011;7528;48.576;19.122;2023-07-28T03:37:25;5.95;;;3.65;;
14872;SDS011;7528;48.576;19.122;2023-07-28T03:42:27;3.47;;;3.17;;
14872;SDS011;7528;48.576;19.122;2023-07-28T03:47:31;3.97;;;3.42;;
14872;SDS011;7528;48.576;19.122;2023-07-28T03:52:33;3.95;;;3.30;;
14872;SDS011;7528;48.576;19.122;2023-07-28T03:57:36;3.95;;;3.45;;
14872;SDS011;7528;48.576;19.122;2023-07-28T04:02:39;3.47;;;3.17;;
14872;SDS011;7528;48.576;19.122;2023-07-28T04:07:42;3.88;;;3.38;;
14872;SDS011;7528;48.576;19.122;2023-07-28T04:12:44;4.30;;;3.30;;
14872;SDS011;7528;48.576;19.122;2023-07-28T04:17:48;4.70;;;3.67;;
14872;SDS011;7528;48.576;19.122;2023-07-28T04:22:50;3.33;;;3.10;;
14872;SDS011;7528;48.576;19.122;2023-07-28T04:27:53;4.28;;;3.70;;
14872;SDS011;7528;48.576;19.122;2023-07-28T04:32:58;3.63;;;3.33;;
14872;SDS011;7528;48.576;19.122;2023-07-28T04:38:07;4.55;;;3.30;;
14872;SDS011;7528;48.576;19.122;2023-07-28T04:43:25;4.47;;;3.35;;
14872;SDS011;7528;48.576;19.122;2023-07-28T04:48:31;3.90;;;3.55;;
14872;SDS011;7528;48.576;19.122;2023-07-28T04:53:36;4.25;;;3.85;;
14872;SDS011;7528;48.576;19.122;2023-07-28T04:58:44;4.82;;;3.90;;
14872;SDS011;7528;48.576;19.122;2023-07-28T05:03:48;4.65;;;4.07;;
14872;SDS011;7528;48.576;19.122;2023-07-28T05:08:57;4.85;;;4.45;;
14872;SDS011;7528;48.576;19.122;2023-07-28T05:14:10;4.88;;;4.45;;
14872;SDS011;7528;48.576;19.122;2023-07-28T05:19:13;4.35;;;3.95;;
14872;SDS011;7528;48.576;19.122;2023-07-28T05:24:39;4.93;;;4.43;;
14872;SDS011;7528;48.576;19.122;2023-07-28T05:29:41;4.75;;;4.35;;
14872;SDS011;7528;48.576;19.122;2023-07-28T05:34:45;4.68;;;4.07;;
14872;SDS011;7528;48.576;19.122;2023-07-28T05:39:48;5.10;;;4.57;;
14872;SDS011;7528;48.576;19.122;2023-07-28T05:44:52;5.13;;;4.63;;
14872;SDS011;7528;48.576;19.122;2023-07-28T05:49:57;5.72;;;4.65;;
14872;SDS011;7528;48.576;19.122;2023-07-28T05:55:00;4.95;;;4.43;;
14872;SDS011;7528;48.576;19.122;2023-07-28T06:00:03;7.18;;;4.88;;
14872;SDS011;7528;48.576;19.122;2023-07-28T06:05:15;5.88;;;5.22;;
14872;SDS011;7528;48.576;19.122;2023-07-28T06:10:18;4.35;;;3.92;;
14872;SDS011;7528;48.576;19.122;2023-07-28T06:15:20;5.25;;;4.22;;
14872;SDS011;7528;48.576;19.122;2023-07-28T06:20:24;4.53;;;4.13;;
14872;SDS011;7528;48.576;19.122;2023-07-28T06:25:26;4.63;;;4.22;;
14872;SDS011;7528;48.576;19.122;2023-07-28T06:30:32;6.22;;;4.60;;
14872;SDS011;7528;48.576;19.122;2023-07-28T06:35:36;6.45;;;4.20;;
14872;SDS011;7528;48.576;19.122;2023-07-28T06:40:39;5.28;;;4.40;;
14872;SDS011;7528;48.576;19.122;2023-07-28T06:45:41;4.50;;;4.05;;
14872;SDS011;7528;48.576;19.122;2023-07-28T06:50:45;4.80;;;4.28;;
14872;SDS011;7528;48.576;19.122;2023-07-28T06:55:47;5.15;;;4.55;;
14872;SDS011;7528;48.576;19.122;2023-07-28T07:00:50;4.75;;;4.22;;
14872;SDS011;7528;48.576;19.122;2023-07-28T07:05:53;4.70;;;4.30;;
14872;SDS011;7528;48.576;19.122;2023-07-28T07:10:56;4.30;;;3.90;;
14872;SDS011;7528;48.576;19.122;2023-07-28T07:15:58;7.25;;;4.53;;
14872;SDS011;7528;48.576;19.122;2023-07-28T07:21:02;5.10;;;4.60;;
14872;SDS011;7528;48.576;19.122;2023-07-28T07:26:06;6.05;;;5.10;;
14872;SDS011;7528;48.576;19.122;2023-07-28T07:31:11;9.23;;;6.82;;
14872;SDS011;7528;48.576;19.122;2023-07-28T07:36:16;7.15;;;5.57;;
14872;SDS011;7528;48.576;19.122;2023-07-28T07:41:21;7.78;;;4.88;;
14872;SDS011;7528;48.576;19.122;2023-07-28T07:46:24;4.57;;;4.07;;
14872;SDS011;7528;48.576;19.122;2023-07-28T07:51:28;4.90;;;4.40;;
14872;SDS011;7528;48.576;19.122;2023-07-28T07:56:30;5.35;;;4.28;;
14872;SDS011;7528;48.576;19.122;2023-07-28T08:01:32;4.60;;;4.20;;
14872;SDS011;7528;48.576;19.122;2023-07-28T08:06:42;4.22;;;3.45;;
14872;SDS011;7528;48.576;19.122;2023-07-28T08:16:50;4.05;;;3.70;;
14872;SDS011;7528;48.576;19.122;2023-07-28T08:21:54;5.03;;;4.28;;
14872;SDS011;7528;48.576;19.122;2023-07-28T08:26:56;4.78;;;3.65;;
14872;SDS011;7528;48.576;19.122;2023-07-28T08:31:58;3.60;;;3.30;;
14872;SDS011;7528;48.576;19.122;2023-07-28T08:37:02;4.60;;;3.67;;
14872;SDS011;7528;48.576;19.122;2023-07-28T08:42:05;4.25;;;3.13;;
14872;SDS011;7528;48.576;19.122;2023-07-28T08:47:08;3.80;;;3.28;;
14872;SDS011;7528;48.576;19.122;2023-07-28T08:52:13;3.75;;;3.15;;
14872;SDS011;7528;48.576;19.122;2023-07-28T08:57:17;4.15;;;3.35;;
14872;SDS011;7528;48.576;19.122;2023-07-28T09:02:21;3.40;;;3.10;;
14872;SDS011;7528;48.576;19.122;2023-07-28T09:07:24;2.75;;;2.55;;
14872;SDS011;7528;48.576;19.122;2023-07-28T09:12:27;3.38;;;3.08;;
14872;SDS011;7528;48.576;19.122;2023-07-28T09:17:33;4.95;;;3.20;;
14872;SDS011;7528;48.576;19.122;2023-07-28T09:22:45;3.72;;;2.72;;
14872;SDS011;7528;48.576;19.122;2023-07-28T09:27:51;3.40;;;2.65;;
14872;SDS011;7528;48.576;19.122;2023-07-28T09:32:54;2.58;;;2.38;;
14872;SDS011;7528;48.576;19.122;2023-07-28T09:37:58;3.10;;;2.80;;
14872;SDS011;7528;48.576;19.122;2023-07-28T09:43:01;2.72;;;2.53;;
14872;SDS011;7528;48.576;19.122;2023-07-28T09:48:05;3.55;;;2.60;;
14872;SDS011;7528;48.576;19.122;2023-07-28T09:53:10;3.00;;;2.60;;
14872;SDS011;7528;48.576;19.122;2023-07-28T09:58:12;4.03;;;2.80;;
14872;SDS011;7528;48.576;19.122;2023-07-28T10:03:19;3.92;;;2.63;;
14872;SDS011;7528;48.576;19.122;2023-07-28T10:08:23;2.70;;;2.50;;
14872;SDS011;7528;48.576;19.122;2023-07-28T10:13:26;3.83;;;2.80;;
14872;SDS011;7528;48.576;19.122;2023-07-28T10:18:29;4.55;;;2.70;;
14872;SDS011;7528;48.576;19.122;2023-07-28T10:29:11;4.95;;;3.08;;
14872;SDS011;7528;48.576;19.122;2023-07-28T10:44:53;4.50;;;3.30;;
14872;SDS011;7528;48.576;19.122;2023-07-28T10:49:55;3.10;;;2.80;;
14872;SDS011;7528;48.576;19.122;2023-07-28T10:54:57;5.63;;;2.95;;
14872;SDS011;7528;48.576;19.122;2023-07-28T11:00:01;3.20;;;2.90;;
14872;SDS011;7528;48.576;19.122;2023-07-28T11:10:49;3.28;;;2.85;;
14872;SDS011;7528;48.576;19.122;2023-07-28T11:15:53;3.15;;;2.88;;
14872;SDS011;7528;48.576;19.122;2023-07-28T11:20:55;3.40;;;3.10;;
14872;SDS011;7528;48.576;19.122;2023-07-28T11:31:58;3.80;;;3.25;;
14872;SDS011;7528;48.576;19.122;2023-07-28T11:49:28;4.03;;;3.03;;
14872;SDS011;7528;48.576;19.122;2023-07-28T11:54:33;3.20;;;2.90;;
14872;SDS011;7528;48.576;19.122;2023-07-28T12:06:18;2.72;;;2.53;;
14872;SDS011;7528;48.576;19.122;2023-07-28T12:24:46;3.55;;;2.67;;
14872;SDS011;7528;48.576;19.122;2023-07-28T12:29:48;3.97;;;2.75;;
14872;SDS011;7528;48.576;19.122;2023-07-28T12:34:51;2.72;;;2.53;;
14872;SDS011;7528;48.576;19.122;2023-07-28T12:39:55;3.58;;;3.10;;
14872;SDS011;7528;48.576;19.122;2023-07-28T12:45:13;2.88;;;2.47;;
14872;SDS011;7528;48.576;19.122;2023-07-28T12:57:02;2.70;;;2.50;;
14872;SDS011;7528;48.576;19.122;2023-07-28T13:02:05;3.30;;;2.40;;
14872;SDS011;7528;48.576;19.122;2023-07-28T13:07:07;2.55;;;2.30;;
14872;SDS011;7528;48.576;19.122;2023-07-28T13:12:11;2.80;;;2.60;;
14872;SDS011;7528;48.576;19.122;2023-07-28T13:17:13;5.32;;;2.60;;
14872;SDS011;7528;48.576;19.122;2023-07-28T13:22:17;2.90;;;2.70;;
14872;SDS011;7528;48.576;19.122;2023-07-28T13:33:32;2.58;;;2.38;;
14872;SDS011;7528;48.576;19.122;2023-07-28T13:58:07;3.38;;;2.88;;
14872;SDS011;7528;48.576;19.122;2023-07-28T14:03:09;3.63;;;2.58;;
14872;SDS011;7528;48.576;19.122;2023-07-28T14:08:14;3.53;;;2.90;;
14872;SDS011;7528;48.576;19.122;2023-07-28T14:13:17;3.42;;;3.03;;
14872;SDS011;7528;48.576;19.122;2023-07-28T14:23:53;3.28;;;2.90;;
14872;SDS011;7528;48.576;19.122;2023-07-28T14:29:04;3.45;;;2.80;;
14872;SDS011;7528;48.576;19.122;2023-07-28T14:34:06;3.45;;;3.10;;
14872;SDS011;7528;48.576;19.122;2023-07-28T14:39:10;4.07;;;3.35;;
14872;SDS011;7528;48.576;19.122;2023-07-28T14:44:12;3.28;;;2.97;;
14872;SDS011;7528;48.576;19.122;2023-07-28T14:49:14;4.13;;;2.92;;
14872;SDS011;7528;48.576;19.122;2023-07-28T14:54:18;3.15;;;2.85;;
14872;SDS011;7528;48.576;19.122;2023-07-28T14:59:20;3.55;;;2.90;;
14872;SDS011;7528;48.576;19.122;2023-07-28T15:04:23;3.40;;;3.10;;
14872;SDS011;7528;48.576;19.122;2023-07-28T15:09:26;3.40;;;3.10;;
14872;SDS011;7528;48.576;19.122;2023-07-28T15:14:29;3.50;;;2.92;;
14872;SDS011;7528;48.576;19.122;2023-07-28T15:19:31;3.22;;;2.92;;
14872;SDS011;7528;48.576;19.122;2023-07-28T15:24:37;3.78;;;2.90;;
14872;SDS011;7528;48.576;19.122;2023-07-28T15:29:39;2.80;;;2.60;;
14872;SDS011;7528;48.576;19.122;2023-07-28T15:34:42;2.90;;;2.70;;
14872;SDS011;7528;48.576;19.122;2023-07-28T15:50:30;3.27;;;2.83;;
14872;SDS011;7528;48.576;19.122;2023-07-28T15:55:36;4.68;;;2.42;;
14872;SDS011;7528;48.576;19.122;2023-07-28T16:00:42;3.67;;;2.70;;
14872;SDS011;7528;48.576;19.122;2023-07-28T16:06:01;5.13;;;2.78;;
14872;SDS011;7528;48.576;19.122;2023-07-28T16:11:08;3.63;;;2.90;;
14872;SDS011;7528;48.576;19.122;2023-07-28T16:16:18;4.25;;;2.90;;
14872;SDS011;7528;48.576;19.122;2023-07-28T16:26:32;2.78;;;2.50;;
14872;SDS011;7528;48.576;19.122;2023-07-28T16:31:36;4.75;;;2.72;;
14872;SDS011;7528;48.576;19.122;2023-07-28T16:36:39;3.50;;;2.72;;
14872;SDS011;7528;48.576;19.122;2023-07-28T16:41:41;2.85;;;2.65;;
14872;SDS011;7528;48.576;19.122;2023-07-28T16:46:53;3.80;;;2.83;;
14872;SDS011;7528;48.576;19.122;2023-07-28T16:51:56;3.42;;;2.92;;
14872;SDS011;7528;48.576;19.122;2023-07-28T16:56:58;3.97;;;3.00;;
14872;SDS011;7528;48.576;19.122;2023-07-28T17:02:02;3.60;;;2.80;;
14872;SDS011;7528;48.576;19.122;2023-07-28T17:07:05;3.95;;;2.80;;
14872;SDS011;7528;48.576;19.122;2023-07-28T17:12:08;3.70;;;2.70;;
14872;SDS011;7528;48.576;19.122;2023-07-28T17:17:11;4.50;;;2.80;;
14872;SDS011;7528;48.576;19.122;2023-07-28T17:22:14;3.15;;;2.67;;
14872;SDS011;7528;48.576;19.122;2023-07-28T17:27:23;3.70;;;3.10;;
14872;SDS011;7528;48.576;19.122;2023-07-28T17:32:27;5.88;;;3.15;;
14872;SDS011;7528;48.576;19.122;2023-07-28T17:37:30;3.67;;;3.10;;
14872;SDS011;7528;48.576;19.122;2023-07-28T17:42:32;3.20;;;2.88;;
14872;SDS011;7528;48.576;19.122;2023-07-28T17:47:36;2.88;;;2.65;;
14872;SDS011;7528;48.576;19.122;2023-07-28T17:52:38;3.90;;;2.70;;
14872;SDS011;7528;48.576;19.122;2023-07-28T17:57:55;3.45;;;3.05;;
14872;SDS011;7528;48.576;19.122;2023-07-28T18:02:59;3.13;;;2.83;;
14872;SDS011;7528;48.576;19.122;2023-07-28T18:19:08;3.88;;;3.08;;
14872;SDS011;7528;48.576;19.122;2023-07-28T18:24:13;3.42;;;3.05;;
14872;SDS011;7528;48.576;19.122;2023-07-28T18:29:20;3.38;;;3.08;;
14872;SDS011;7528;48.576;19.122;2023-07-28T18:34:24;3.58;;;3.20;;
14872;SDS011;7528;48.576;19.122;2023-07-28T18:39:26;3.47;;;3.10;;
14872;SDS011;7528;48.576;19.122;2023-07-28T18:44:36;3.22;;;2.88;;
14872;SDS011;7528;48.576;19.122;2023-07-28T18:49:40;4.13;;;3.20;;
14872;SDS011;7528;48.576;19.122;2023-07-28T18:54:42;4.65;;;3.33;;
14872;SDS011;7528;48.576;19.122;2023-07-28T18:59:44;4.25;;;3.63;;
14872;SDS011;7528;48.576;19.122;2023-07-28T19:10:13;4.38;;;3.65;;
14872;SDS011;7528;48.576;19.122;2023-07-28T19:15:15;4.28;;;3.72;;
14872;SDS011;7528;48.576;19.122;2023-07-28T19:20:19;3.65;;;3.35;;
14872;SDS011;7528;48.576;19.122;2023-07-28T19:25:21;4.07;;;3.47;;
14872;SDS011;7528;48.576;19.122;2023-07-28T19:30:24;3.45;;;3.15;;
14872;SDS011;7528;48.576;19.122;2023-07-28T19:35:27;4.45;;;3.83;;
14872;SDS011;7528;48.576;19.122;2023-07-28T19:40:30;4.85;;;3.90;;
14872;SDS011;7528;48.576;19.122;2023-07-28T19:45:33;5.32;;;3.72;;
14872;SDS011;7528;48.576;19.122;2023-07-28T19:50:36;4.97;;;3.67;;
14872;SDS011;7528;48.576;19.122;2023-07-28T19:55:39;6.38;;;3.95;;
14872;SDS011;7528;48.576;19.122;2023-07-28T20:00:41;4.80;;;3.70;;
14872;SDS011;7528;48.576;19.122;2023-07-28T20:05:45;4.10;;;3.63;;
14872;SDS011;7528;48.576;19.122;2023-07-28T20:10:48;4.70;;;3.72;;
14872;SDS011;7528;48.576;19.122;2023-07-28T20:15:50;6.63;;;3.65;;
14872;SDS011;7528;48.576;19.122;2023-07-28T20:20:56;4.32;;;3.92;;
14872;SDS011;7528;48.576;19.122;2023-07-28T20:25:59;4.22;;;3.65;;
14872;SDS011;7528;48.576;19.122;2023-07-28T20:31:07;3.83;;;3.50;;
14872;SDS011;7528;48.576;19.122;2023-07-28T20:36:10;4.50;;;3.40;;
14872;SDS011;7528;48.576;19.122;2023-07-28T20:41:13;7.15;;;3.70;;
14872;SDS011;7528;48.576;19.122;2023-07-28T20:46:17;4.88;;;3.97;;
14872;SDS011;7528;48.576;19.122;2023-07-28T20:51:21;5.38;;;3.55;;
14872;SDS011;7528;48.576;19.122;2023-07-28T20:56:23;3.85;;;3.53;;
14872;SDS011;7528;48.576;19.122;2023-07-28T21:01:25;7.50;;;3.72;;
14872;SDS011;7528;48.576;19.122;2023-07-28T21:06:29;4.05;;;3.65;;
14872;SDS011;7528;48.576;19.122;2023-07-28T21:11:32;4.00;;;3.60;;
14872;SDS011;7528;48.576;19.122;2023-07-28T21:16:34;4.47;;;3.53;;
14872;SDS011;7528;48.576;19.122;2023-07-28T21:21:38;6.78;;;3.60;;
14872;SDS011;7528;48.576;19.122;2023-07-28T21:26:40;4.43;;;3.83;;
14872;SDS011;7528;48.576;19.122;2023-07-28T21:31:43;3.78;;;3.40;;
14872;SDS011;7528;48.576;19.122;2023-07-28T21:36:47;4.85;;;3.65;;
14872;SDS011;7528;48.576;19.122;2023-07-28T21:41:51;4.20;;;3.70;;
14872;SDS011;7528;48.576;19.122;2023-07-28T21:46:54;4.72;;;3.72;;
14872;SDS011;7528;48.576;19.122;2023-07-28T21:51:58;4.38;;;3.72;;
14872;SDS011;7528;48.576;19.122;2023-07-28T21:57:01;4.20;;;3.80;;
14872;SDS011;7528;48.576;19.122;2023-07-28T22:02:03;5.10;;;4.55;;
14872;SDS011;7528;48.576;19.122;2023-07-28T22:07:10;4.68;;;3.88;;
14872;SDS011;7528;48.576;19.122;2023-07-28T22:12:17;4.25;;;3.67;;
14872;SDS011;7528;48.576;19.122;2023-07-28T22:17:20;6.25;;;3.90;;
14872;SDS011;7528;48.576;19.122;2023-07-28T22:22:23;4.60;;;4.20;;
14872;SDS011;7528;48.576;19.122;2023-07-28T22:27:26;4.32;;;3.78;;
14872;SDS011;7528;48.576;19.122;2023-07-28T22:32:28;4.57;;;4.03;;
14872;SDS011;7528;48.576;19.122;2023-07-28T22:37:32;6.82;;;3.70;;
14872;SDS011;7528;48.576;19.122;2023-07-28T22:42:35;3.97;;;3.65;;
14872;SDS011;7528;48.576;19.122;2023-07-28T22:47:37;4.78;;;4.10;;
14872;SDS011;7528;48.576;19.122;2023-07-28T22:52:41;5.57;;;3.92;;
14872;SDS011;7528;48.576;19.122;2023-07-28T22:57:43;5.72;;;4.50;;
14872;SDS011;7528;48.576;19.122;2023-07-28T23:02:46;4.85;;;4.32;;
14872;SDS011;7528;48.576;19.122;2023-07-28T23:07:49;4.85;;;4.30;;
14872;SDS011;7528;48.576;19.122;2023-07-28T23:12:52;6.80;;;4.60;;
14872;SDS011;7528;48.576;19.122;2023-07-28T23:17:54;10.30;;;5.68;;
14872;SDS011;7528;48.576;19.122;2023-07-28T23:23:00;7.82;;;7.03;;
14872;SDS011;7528;48.576;19.122;2023-07-28T23:28:03;7.70;;;5.15;;
14872;SDS011;7528;48.576;19.122;2023-07-28T23:33:06;7.38;;;5.60;;
14872;SDS011;7528;48.576;19.122;2023-07-28T23:38:09;13.15;;;7.50;;
14872;SDS011;7528;48.576;19.122;2023-07-28T23:43:12;10.07;;;7.63;;
14872;SDS011;7528;48.576;19.122;2023-07-28T23:48:14;18.98;;;9.40;;
14872;SDS011;7528;48.576;19.122;2023-07-28T23:53:18;9.38;;;8.13;;
14872;SDS011;7528;48.576;19.122;2023-07-28T23:58:21;34.83;;;10.48;;
